Latest Weather Observations for Gladstone

IDQ60801

Issued at 10:32 am EST Saturday 28 February 2015 (issued every 30 minutes, with the page automatically refreshed every 10 minutes)

About weather observations | Map of weather stations | Latest weather observations for QLD | Other Formats
Station Details ID: 039123 Name: GLADSTONE RADAR Lat: -23.86 Lon: 151.26 Height: 74.5 m
Data from the previous 72 hours. | See also: Recent months at Gladstone
Date/Time
EST
Temp
°C
App
Temp
°C
Dew
Point
Rel
Hum
%
Delta-T
°C
Wind Press
QNH
hPa
Press
MSL
hPa
Rain
since 9 am
mm
Dir
 
Spd
km/h
Gust
km/h
Spd
kts
Gust
kts
28/10:30am 28.0 30.3 21.3 67 4.5 ENE 11 15 6 8 1010.7 1010.2 0.0
28/10:00am 28.4 30.8 20.9 64 5.0 ENE 9 13 5 7 1010.7 1010.2 0.0
28/09:30am 28.0 31.1 21.1 66 4.6 ENE 6 9 3 5 1010.6 1010.1 0.0
28/09:00am 27.1 31.0 20.4 66 4.4 CALM 0 6 0 3 1010.6 1010.1 0.0
28/08:30am 27.6 31.3 22.5 74 3.5 E 7 11 4 6 1010.3 1009.8 0.0
28/08:00am 26.3 30.4 21.5 75 3.2 ESE 2 7 1 4 1010.1 1009.6 0.0
28/07:00am 24.5 27.7 21.6 84 1.9 S 7 11 4 6 1009.6 1009.1 0.0
28/06:30am 23.8 26.6 21.5 87 1.5 S 9 11 5 6 1009.3 1008.8 0.0
28/06:00am 23.5 25.8 21.4 88 1.4 SSE 11 13 6 7 1008.9 1008.4 0.0
28/05:30am 23.4 25.9 21.1 87 1.5 S 9 13 5 7 1008.9 1008.4 0.0
28/05:00am 23.5 26.1 21.2 87 1.5 SSW 9 11 5 6 1008.8 1008.3 0.0
28/04:30am 23.8 26.5 21.3 86 1.6 SSE 9 11 5 6 1008.6 1008.1 0.0
28/04:00am 23.7 26.2 21.0 85 1.8 SE 9 13 5 7 1008.4 1007.9 0.0
28/03:30am 24.2 27.2 21.3 84 1.9 ESE 7 13 4 7 1008.5 1008.0 0.0
28/03:00am 24.3 26.1 21.2 83 2.0 ENE 13 17 7 9 1008.4 1007.9 0.0
28/02:30am 24.4 26.8 21.5 84 1.9 ENE 11 15 6 8 1008.8 1008.3 0.0
28/02:00am 24.6 26.6 21.5 83 2.1 ENE 13 19 7 10 1009.0 1008.5 0.0
28/01:30am 24.6 26.5 21.3 82 2.2 ENE 13 17 7 9 1009.1 1008.6 0.0
28/01:00am 24.8 26.5 21.7 83 2.1 ENE 15 20 8 11 1009.2 1008.7 0.0
28/12:30am 24.9 26.7 21.8 83 2.1 ENE 15 20 8 11 1009.4 1008.9 0.0
28/12:00am 24.7 26.6 22.0 85 1.8 NE 15 19 8 10 1009.3 1008.8 0.0
 
Date/Time
EST
Temp
°C
App
Temp
°C
Dew
Point
Rel
Hum
%
Delta-T
°C
Wind Press
QNH
hPa
Press
MSL
hPa
Rain
since 9 am
mm
Dir
 
Spd
km/h
Gust
km/h
Spd
kts
Gust
kts
27/11:30pm 25.0 26.9 22.1 84 1.9 ENE 15 20 8 11 1009.2 1008.7 0.0
27/11:00pm 24.9 26.4 22.0 84 1.9 ENE 17 22 9 12 1009.2 1008.7 0.0
27/10:30pm 25.0 26.0 21.7 82 2.2 ENE 19 24 10 13 1009.2 1008.7 0.0
27/10:00pm 24.8 25.6 21.3 81 2.3 ENE 19 24 10 13 1009.1 1008.6 0.0
27/09:30pm 25.1 25.8 21.2 79 2.6 E 19 24 10 13 1008.8 1008.3 0.0
27/09:00pm 25.0 26.1 21.3 80 2.5 ENE 17 24 9 13 1008.9 1008.4 0.0
27/08:30pm 25.2 26.4 21.5 80 2.5 ENE 17 24 9 13 1008.5 1008.0 0.0
27/08:00pm 25.3 26.0 21.6 80 2.5 ENE 20 28 11 15 1007.8 1007.3 0.0
27/07:30pm 25.4 26.6 21.5 79 2.6 ENE 17 24 9 13 1007.9 1007.4 0.0
27/07:00pm 25.6 27.1 21.3 77 2.9 ENE 15 20 8 11 1007.6 1007.1 0.0
27/06:30pm 26.0 27.5 21.2 75 3.2 ENE 15 20 8 11 1007.2 1006.7 0.0
27/06:00pm 26.5 28.5 20.8 71 3.8 NE 11 15 6 8 1007.0 1006.5 0.0
27/05:30pm 27.1 28.5 20.4 66 4.4 NE 13 17 7 9 1006.7 1006.2 0.0
27/05:00pm 28.2 29.0 20.7 63 5.0 NE 17 22 9 12 1006.4 1005.9 0.0
27/04:30pm 29.7 31.4 21.6 61 5.5 NE 15 20 8 11 1006.4 1005.9 0.0
27/04:00pm 28.8 30.2 20.3 60 5.6 NE 13 22 7 12 1006.4 1005.9 0.0
27/03:30pm 29.9 31.1 20.7 57 6.1 NE 15 22 8 12 1006.3 1005.8 0.0
27/03:00pm 30.5 31.3 20.7 55 6.5 NE 17 22 9 12 1006.4 1005.9 0.0
27/02:30pm 30.8 32.5 21.6 58 6.2 NE 15 24 8 13 1006.7 1006.2 0.0
27/02:00pm 31.0 31.9 21.5 57 6.4 ENE 19 26 10 14 1006.9 1006.4 0.0
27/01:30pm 31.1 32.3 22.1 58 6.1 ENE 19 26 10 14 1007.2 1006.7 0.0
27/01:00pm 31.6 32.7 22.0 56 6.5 ENE 19 28 10 15 1007.6 1007.1 0.0
27/12:30pm 31.0 31.7 21.5 57 6.4 ENE 20 30 11 16 1008.1 1007.6 0.0
27/12:00pm 31.6 32.4 21.4 54 6.9 ENE 19 28 10 15 1008.7 1008.2 0.0
27/11:30am 30.7 30.4 20.3 53 6.9 ENE 22 32 12 17 1008.7 1008.2 0.0
27/11:00am 31.3 31.8 20.9 54 7.0 E 19 28 10 15 1009.5 1009.0 0.0
27/10:30am 30.9 31.6 19.6 51 7.4 ESE 15 22 8 12 1009.8 1009.3 0.0
27/10:00am 31.0 32.4 20.3 53 7.1 ENE 13 24 7 13 1009.8 1009.3 0.0
27/09:30am 29.0 30.3 20.2 59 5.8 ESE 13 19 7 10 1009.6 1009.1 0.0
27/09:00am 26.5 28.6 20.1 68 4.2 SSE 9 13 5 7 1009.6 1009.1 0.0
27/08:30am 27.2 30.0 20.5 67 4.4 E 6 9 3 5 1009.4 1008.9 0.0
27/08:00am 27.4 29.9 20.2 65 4.7 E 7 11 4 6 1009.1 1008.6 0.0
27/07:30am 27.1 30.3 21.6 72 3.7 ESE 7 11 4 6 1008.8 1008.3 0.0
27/07:00am 25.3 28.6 20.8 76 3.0 SE 4 7 2 4 1008.9 1008.4 0.0
27/06:30am 24.3 27.3 20.8 81 2.3 SE 6 7 3 4 1008.3 1007.8 0.0
27/06:00am 23.9 26.1 20.4 81 2.3 NE 9 11 5 6 1007.9 1007.4 0.0
27/05:30am 24.0 25.9 20.5 81 2.3 NE 11 13 6 7 1007.5 1007.0 0.0
27/05:00am 24.2 26.4 20.3 79 2.5 ENE 9 13 5 7 1007.5 1007.0 0.0
27/04:30am 24.5 26.0 20.6 79 2.6 ENE 13 20 7 11 1007.1 1006.6 0.0
27/04:00am 24.8 26.1 20.9 79 2.6 E 15 20 8 11 1007.2 1006.7 0.0
27/03:30am 24.9 26.5 20.8 78 2.7 ENE 13 20 7 11 1007.1 1006.6 0.0
27/03:00am 25.0 27.0 20.7 77 2.8 ENE 11 17 6 9 1007.4 1006.9 0.0
27/02:30am 25.2 27.2 20.7 76 3.0 ENE 11 17 6 9 1007.3 1006.8 0.0
27/02:00am 25.2 26.4 20.7 76 3.0 ENE 15 20 8 11 1007.3 1006.8 0.0
27/01:30am 25.3 25.8 20.8 76 3.0 ENE 19 28 10 15 1007.1 1006.6 0.0
27/01:00am 25.3 25.7 21.0 77 2.8 ENE 20 28 11 15 1007.4 1006.9 0.0
27/12:30am 25.4 26.3 20.9 76 3.0 ENE 17 24 9 13 1008.0 1007.5 0.0
27/12:00am 25.4 26.4 21.1 77 2.8 ENE 17 22 9 12 1008.3 1007.8 0.0
 
Date/Time
EST
Temp
°C
App
Temp
°C
Dew
Point
Rel
Hum
%
Delta-T
°C
Wind Press
QNH
hPa
Press
MSL
hPa
Rain
since 9 am
mm
Dir
 
Spd
km/h
Gust
km/h
Spd
kts
Gust
kts
26/11:30pm 25.2 26.2 21.1 78 2.7 ENE 17 22 9 12 1008.7 1008.2 0.0
26/11:00pm 25.0 25.4 20.9 78 2.7 ENE 20 30 11 16 1008.7 1008.2 0.0
26/10:30pm 25.2 25.7 20.9 77 2.8 E 19 26 10 14 1008.8 1008.3 0.0
26/10:00pm 25.4 26.9 21.3 78 2.7 ENE 15 24 8 13 1008.9 1008.4 0.0
26/09:30pm 25.2 26.0 21.3 79 2.6 ENE 19 24 10 13 1008.7 1008.2 0.0
26/09:00pm 25.2 25.6 20.9 77 2.8 E 20 28 11 15 1008.5 1008.0 0.0
26/08:30pm 25.2 26.1 20.9 77 2.8 E 17 28 9 15 1008.2 1007.7 0.0
26/08:00pm 25.3 25.1 20.5 75 3.2 E 22 28 12 15 1007.9 1007.4 0.0
26/07:30pm 25.4 25.4 20.2 73 3.4 E 20 26 11 14 1007.4 1006.9 0.0
26/07:00pm 25.4 25.6 20.2 73 3.4 ENE 19 26 10 14 1007.3 1006.8 0.0
26/06:30pm 25.7 26.0 19.6 69 3.9 E 17 24 9 13 1007.0 1006.5 0.0
26/06:00pm 26.4 26.7 19.5 66 4.5 ENE 17 24 9 13 1007.0 1006.5 0.0
26/05:30pm 26.7 26.3 19.3 64 4.8 ENE 20 30 11 16 1006.4 1005.9 0.0
26/05:00pm 27.7 27.7 19.8 62 5.2 ENE 19 26 10 14 1006.2 1005.7 0.0
26/04:30pm 28.7 28.8 19.9 59 5.8 ENE 19 28 10 15 1006.2 1005.7 0.0
26/04:00pm 29.3 29.6 19.6 56 6.4 ENE 17 24 9 13 1006.3 1005.8 0.0
26/03:30pm 29.7 29.9 20.5 57 6.1 ENE 20 30 11 16 1006.2 1005.7 0.0
26/03:00pm 30.2 30.5 20.4 55 6.5 ENE 19 28 10 15 1006.4 1005.9 0.0
26/02:30pm 30.4 30.8 20.9 57 6.3 ENE 20 30 11 16 1006.6 1006.1 0.0
26/02:00pm 30.4 30.7 20.3 54 6.7 ENE 19 26 10 14 1007.1 1006.6 0.0
26/01:30pm 30.5 31.0 20.1 53 6.9 NE 17 22 9 12 1007.5 1007.0 0.0
26/01:00pm 30.0 31.1 19.7 54 6.8 NE 13 20 7 11 1007.9 1007.4 0.0
26/12:30pm 31.0 31.9 20.0 52 7.3 ENE 15 22 8 12 1008.2 1007.7 0.0
26/12:00pm 32.2 32.9 20.5 50 7.8 NE 17 24 9 13 1008.7 1008.2 0.0
26/11:30am 31.0 30.4 18.4 47 8.1 ENE 19 26 10 14 1008.8 1008.3 0.0
26/11:00am 30.8 30.7 19.5 51 7.4 ENE 19 28 10 15 1009.3 1008.8 0.0
26/10:30am 31.1 31.5 19.8 51 7.5 ENE 17 24 9 13 1009.7 1009.2 0.0
26/10:00am 30.2 30.8 20.2 55 6.6 E 17 24 9 13 1009.7 1009.2 0.0
26/09:30am 26.9 28.1 20.0 66 4.5 SE 13 24 7 13 1009.9 1009.4 0.0
26/09:00am 26.6 28.1 19.7 66 4.5 SE 11 22 6 12 1009.9 1009.4 0.0
26/08:30am 26.8 27.9 20.4 68 4.2 SE 15 20 8 11 1009.8 1009.3 0.0
26/08:00am 26.5 28.1 20.8 71 3.8 SE 13 20 7 11 1009.5 1009.0 0.0
26/07:30am 25.1 26.7 20.8 77 2.8 SSE 13 19 7 10 1009.4 1008.9 0.0
26/07:00am 24.2 26.3 20.9 82 2.2 SSE 11 17 6 9 1009.2 1008.7 0.0
26/06:30am 22.8 24.6 20.3 86 1.6 S 11 19 6 10 1009.0 1008.5 0.0
26/06:00am 22.6 24.3 20.1 86 1.6 SSE 11 17 6 9 1008.7 1008.2 0.0
26/05:30am 22.5 23.8 20.2 87 1.5 S 13 20 7 11 1008.6 1008.1 0.0
26/05:00am 22.3 23.6 20.2 88 1.4 SSW 13 20 7 11 1008.3 1007.8 0.0
26/04:30am 22.5 23.4 20.0 86 1.6 S 15 20 8 11 1008.1 1007.6 0.0
26/04:00am 22.5 23.8 20.2 87 1.5 SSW 13 19 7 10 1008.1 1007.6 0.0
26/03:30am 22.5 23.4 20.0 86 1.6 S 15 24 8 13 1008.0 1007.5 0.0
26/03:00am 22.5 23.4 20.0 86 1.6 SE 15 24 8 13 1007.7 1007.2 0.0
26/02:30am 22.7 23.2 20.0 85 1.7 SSE 17 26 9 14 1008.1 1007.6 0.0
26/02:00am 22.9 24.2 20.1 84 1.8 SSE 13 22 7 12 1008.6 1008.1 0.0
26/01:30am 23.1 24.0 20.1 83 1.9 SE 15 20 8 11 1008.9 1008.4 0.0
26/01:00am 23.4 24.6 20.0 81 2.2 SSE 13 19 7 10 1009.7 1009.2 0.0
26/12:30am 23.7 24.9 20.0 80 2.4 SSE 13 20 7 11 1009.9 1009.4 0.0
26/12:00am 24.2 24.8 20.3 79 2.5 SE 17 28 9 15 1010.0 1009.5 0.0
 
Date/Time
EST
Temp
°C
App
Temp
°C
Dew
Point
Rel
Hum
%
Delta-T
°C
Wind Press
QNH
hPa
Press
MSL
hPa
Rain
since 9 am
mm
Dir
 
Spd
km/h
Gust
km/h
Spd
kts
Gust
kts
25/11:30pm 24.3 24.5 20.2 78 2.7 SE 19 28 10 15 1010.0 1009.5 0.0
25/11:00pm 24.5 24.7 20.2 77 2.8 SE 19 32 10 17 1010.0 1009.5 0.0
25/10:30pm 24.9 25.1 20.6 77 2.8 SE 20 32 11 17 1010.1 1009.6 0.0
25/10:00pm 25.2 24.3 20.7 76 3.0 ESE 26 41 14 22 1010.2 1009.7 0.0
25/09:30pm 25.4 24.5 20.6 75 3.2 ESE 26 39 14 21 1010.2 1009.7 0.0
25/09:00pm 25.6 25.4 21.3 77 2.9 ESE 24 39 13 21 1009.9 1009.4 0.0
25/08:30pm 25.9 26.1 22.0 79 2.6 ESE 24 39 13 21 1009.7 1009.2 0.0
25/08:00pm 26.1 24.4 21.7 77 2.9 ESE 33 48 18 26 1008.9 1008.4 0.0
25/07:30pm 26.2 24.4 21.6 76 3.1 ESE 33 46 18 25 1008.6 1008.1 0.0
25/07:15pm 26.4 24.5 21.4 74 3.3 ESE 33 52 18 28 1008.3 1007.8 0.0
25/07:00pm 26.5 24.2 21.3 73 3.5 ESE 35 48 19 26 1008.3 1007.8 0.0
25/06:37pm 26.6 25.7 21.4 73 3.5 E 28 48 15 26 1008.1 1007.6 0.0
25/06:30pm 26.5 25.4 21.7 75 3.2 E 30 41 16 22 1008.1 1007.6 0.0
25/06:00pm 26.8 25.3 21.8 74 3.4 E 32 43 17 23 1007.7 1007.2 0.0
25/05:30pm 27.2 25.4 21.5 71 3.8 E 33 46 18 25 1007.5 1007.0 0.0
25/05:00pm 28.0 26.7 21.3 67 4.5 E 30 43 16 23 1007.4 1006.9 0.0
25/04:30pm 28.8 27.6 21.6 65 4.8 E 30 39 16 21 1007.3 1006.8 0.0
25/04:00pm 29.7 29.4 21.9 63 5.3 E 26 35 14 19 1007.3 1006.8 0.0
25/03:30pm 30.1 29.3 21.7 60 5.7 E 28 37 15 20 1007.3 1006.8 0.0
25/03:00pm 30.8 30.6 22.1 59 5.9 ENE 26 37 14 20 1007.4 1006.9 0.0
25/02:30pm 30.9 30.8 22.2 59 5.9 ENE 26 33 14 18 1007.6 1007.1 0.0
25/02:00pm 31.3 31.5 22.0 57 6.3 ENE 24 33 13 18 1007.9 1007.4 0.0
25/01:30pm 31.7 31.9 22.1 56 6.5 ENE 24 33 13 18 1008.1 1007.6 0.0
25/01:00pm 31.9 32.5 20.2 50 7.8 ESE 17 30 9 16 1008.4 1007.9 0.0
25/12:30pm 32.8 33.6 21.3 50 7.8 E 19 28 10 15 1008.9 1008.4 0.0
25/12:00pm 31.3 31.4 19.9 50 7.5 ESE 19 33 10 18 1009.2 1008.7 0.0
25/11:30am 31.3 31.7 20.6 53 7.1 ESE 19 30 10 16 1009.7 1009.2 0.0
25/11:00am 30.3 31.2 20.8 56 6.3 SE 17 30 9 16 1010.1 1009.6 0.0

Other Formats:

Comma delimited format used in spreadsheet applications
http://www.bom.gov.au/fwo/IDQ60801/IDQ60801.94380.axf

JavaScript Object Notation format (JSON) in row-major order
http://www.bom.gov.au/fwo/IDQ60801/IDQ60801.94380.json